Time;durP1;ratioP1;P1;durP2;ratioP2;P2;SDS_P1;SDS_P2;PMS_P1;PMS_P2;Temp;Humidity;BMP_temperature;BMP_pressure;BME280_temperature;BME280_humidity;BME280_pressure;Samples;Min_cycle;Max_cycle;Signal;HPM_P1;HPM_P2
2023/04/12 00:00:34;;;;;;;4.63;1.70;;;9.90;99.90;;;;;;5027546;28;20209;-70
2023/04/12 00:03:04;;;;;;;1.47;1.27;;;9.80;99.90;;;;;;5020067;28;20190;-70
2023/04/12 00:05:29;;;;;;;6.00;2.10;;;9.90;99.90;;;;;;5041819;28;20209;-70
2023/04/12 00:07:55;;;;;;;3.23;0.97;;;10.00;99.90;;;;;;5029561;28;20643;-70
2023/04/12 00:10:21;;;;;;;3.63;1.87;;;10.00;99.90;;;;;;4998412;28;20210;-69
2023/04/12 00:12:48;;;;;;;1.40;1.30;;;10.00;99.90;;;;;;5002861;28;20618;-69
2023/04/12 00:15:14;;;;;;;1.67;1.30;;;10.00;99.90;;;;;;5022484;28;20190;-70
2023/04/12 00:17:40;;;;;;;3.50;1.57;;;10.00;99.90;;;;;;5024650;28;20596;-69
2023/04/12 00:20:11;;;;;;;1.80;1.27;;;10.10;99.90;;;;;;5006132;28;20211;-70
2023/04/12 00:22:38;;;;;;;2.07;1.30;;;10.00;99.90;;;;;;5000642;28;20192;-70
2023/04/12 00:25:04;;;;;;;1.40;1.23;;;9.90;99.90;;;;;;5031754;28;20210;-70
2023/04/12 00:27:30;;;;;;;1.13;1.13;;;10.00;99.90;;;;;;5018859;28;20200;-70
2023/04/12 00:29:56;;;;;;;1.90;1.63;;;9.90;99.90;;;;;;5007747;28;20198;-70
2023/04/12 00:32:21;;;;;;;3.47;1.10;;;10.00;99.90;;;;;;5000081;28;20580;-70
2023/04/12 00:34:47;;;;;;;1.03;1.03;;;9.90;99.90;;;;;;5028642;28;20192;-70
2023/04/12 00:37:13;;;;;;;1.20;1.10;;;9.90;99.90;;;;;;5012408;28;20187;-70
2023/04/12 00:39:38;;;;;;;1.63;1.30;;;10.00;99.90;;;;;;5027466;28;20213;-70
2023/04/12 00:42:04;;;;;;;1.57;1.40;;;9.90;99.90;;;;;;5019130;28;20195;-71
2023/04/12 00:44:34;;;;;;;1.93;1.73;;;9.80;99.90;;;;;;5026974;28;20195;-70
2023/04/12 00:47:00;;;;;;;1.67;1.57;;;9.80;99.90;;;;;;5015515;28;20187;-70
2023/04/12 00:49:29;;;;;;;1.37;1.13;;;9.80;99.90;;;;;;5019179;28;20580;-70
2023/04/12 00:52:02;;;;;;;1.43;1.30;;;9.90;99.90;;;;;;5008458;28;20235;-70
2023/04/12 00:54:37;;;;;;;2.27;1.27;;;9.70;99.90;;;;;;5015976;28;20544;-70
2023/04/12 00:57:03;;;;;;;1.27;1.17;;;9.70;99.90;;;;;;5012342;28;20550;-71
2023/04/12 00:59:29;;;;;;;2.23;0.90;;;9.80;99.90;;;;;;5021114;28;20297;-70
2023/04/12 01:01:55;;;;;;;3.53;1.60;;;9.80;99.90;;;;;;5013897;28;20199;-70
2023/04/12 01:04:21;;;;;;;1.53;1.43;;;9.90;99.90;;;;;;5017502;28;20663;-70
2023/04/12 01:07:14;;;;;;;2.47;1.60;;;9.90;99.90;;;;;;5025073;28;20205;-69
2023/04/12 01:09:56;;;;;;;2.43;2.33;;;9.80;99.90;;;;;;5023460;28;20196;-70
2023/04/12 01:12:39;;;;;;;1.17;1.17;;;9.80;99.90;;;;;;5004116;28;20192;-69
2023/04/12 01:15:12;;;;;;;1.33;1.27;;;9.80;99.90;;;;;;5000670;28;20197;-69
2023/04/12 01:17:47;;;;;;;5.27;1.13;;;9.80;99.90;;;;;;5022004;28;20985;-71
2023/04/12 01:20:22;;;;;;;1.70;1.17;;;9.80;99.90;;;;;;5009339;28;20605;-70
2023/04/12 01:23:09;;;;;;;2.03;1.60;;;9.70;99.90;;;;;;5016502;28;20186;-71
2023/04/12 01:25:46;;;;;;;1.90;1.33;;;9.70;99.90;;;;;;5029033;28;20637;-70
2023/04/12 01:28:17;;;;;;;4.20;1.80;;;9.70;99.90;;;;;;5010312;28;20185;-70
2023/04/12 01:30:45;;;;;;;2.20;1.40;;;9.70;99.90;;;;;;5025390;28;20593;-71
2023/04/12 01:33:12;;;;;;;2.40;1.73;;;9.80;99.90;;;;;;5013456;28;20188;-69
2023/04/12 01:35:39;;;;;;;3.33;1.43;;;9.70;99.90;;;;;;5026513;28;20262;-71
2023/04/12 01:38:06;;;;;;;1.23;1.00;;;9.60;99.90;;;;;;5018789;28;20652;-71
2023/04/12 01:40:32;;;;;;;1.47;1.43;;;9.70;99.90;;;;;;5023195;28;20667;-70
2023/04/12 01:43:11;;;;;;;4.10;1.43;;;9.80;99.90;;;;;;5019214;28;20188;-70
2023/04/12 01:45:38;;;;;;;1.53;1.43;;;9.90;99.90;;;;;;5016714;28;20179;-70
2023/04/12 01:48:06;;;;;;;1.97;1.07;;;10.00;99.90;;;;;;5015716;28;20179;-70
2023/04/12 01:50:54;;;;;;;1.20;1.10;;;10.00;99.90;;;;;;5027662;28;20653;-71
2023/04/12 01:53:31;;;;;;;1.43;1.40;;;9.90;99.90;;;;;;5018705;28;20530;-70
2023/04/12 01:56:01;;;;;;;2.77;1.27;;;10.00;99.90;;;;;;5001100;28;20211;-70
2023/04/12 01:58:28;;;;;;;2.97;1.70;;;10.00;99.90;;;;;;5026515;28;20266;-70
2023/04/12 02:00:56;;;;;;;3.07;1.30;;;9.90;99.90;;;;;;5011627;28;20204;-70
2023/04/12 02:03:22;;;;;;;3.13;1.30;;;9.80;99.90;;;;;;5032564;28;20187;-70
2023/04/12 02:05:50;;;;;;;2.73;1.10;;;9.90;99.90;;;;;;5019774;28;20187;-70
2023/04/12 02:08:16;;;;;;;1.93;1.37;;;9.90;99.90;;;;;;5025335;28;20218;-69
2023/04/12 02:10:42;;;;;;;4.43;1.53;;;9.80;99.90;;;;;;5007974;28;20596;-67
2023/04/12 02:13:07;;;;;;;2.00;1.90;;;9.70;99.90;;;;;;5013628;28;20632;-68
2023/04/12 02:15:33;;;;;;;1.23;1.13;;;9.70;99.90;;;;;;5026739;28;20199;-67
2023/04/12 02:17:59;;;;;;;1.00;1.00;;;9.80;99.90;;;;;;5029266;28;20306;-68
2023/04/12 02:20:25;;;;;;;1.37;1.27;;;9.80;99.90;;;;;;5016129;28;20667;-68
2023/04/12 02:22:52;;;;;;;2.20;1.53;;;9.90;99.90;;;;;;5021697;28;20186;-65
2023/04/12 02:25:18;;;;;;;2.20;1.03;;;9.90;99.90;;;;;;5025424;28;20265;-68
2023/04/12 02:27:45;;;;;;;2.07;1.43;;;9.80;99.90;;;;;;5021073;28;20214;-68
2023/04/12 02:30:12;;;;;;;1.70;1.50;;;9.90;99.90;;;;;;5029078;28;20285;-68
2023/04/12 02:32:44;;;;;;;1.77;1.67;;;10.00;99.90;;;;;;5035927;28;20180;-69
2023/04/12 02:35:16;;;;;;;2.17;1.23;;;9.90;99.90;;;;;;5018549;28;20527;-69
2023/04/12 02:37:45;;;;;;;2.83;1.80;;;10.00;99.90;;;;;;5007999;28;20614;-68
2023/04/12 02:40:12;;;;;;;1.63;1.53;;;10.00;99.90;;;;;;5016913;28;20211;-68
2023/04/12 02:42:38;;;;;;;1.40;1.30;;;10.10;99.90;;;;;;5023980;28;20183;-68
2023/04/12 02:45:04;;;;;;;1.83;1.60;;;10.00;99.90;;;;;;5006641;28;20274;-68
2023/04/12 02:47:29;;;;;;;2.10;1.23;;;9.90;99.90;;;;;;5005203;28;20192;-69
2023/04/12 02:49:56;;;;;;;3.03;2.10;;;9.90;99.90;;;;;;5008504;28;20215;-68
2023/04/12 02:52:22;;;;;;;1.23;1.23;;;10.00;99.90;;;;;;5016097;28;20211;-70
2023/04/12 02:54:49;;;;;;;2.67;1.60;;;10.00;99.90;;;;;;5023939;28;20520;-68
2023/04/12 02:57:15;;;;;;;2.13;1.93;;;10.00;99.90;;;;;;5014481;28;20192;-68
2023/04/12 02:59:41;;;;;;;5.23;1.70;;;9.90;99.90;;;;;;5013687;28;20339;-68
2023/04/12 03:02:07;;;;;;;2.40;1.20;;;9.90;99.90;;;;;;5027541;28;20643;-67
2023/04/12 03:04:36;;;;;;;1.63;1.57;;;9.90;99.90;;;;;;5008376;28;20262;-68
2023/04/12 03:07:02;;;;;;;1.27;1.17;;;9.90;99.90;;;;;;5019347;28;20220;-68
2023/04/12 03:09:27;;;;;;;3.93;1.17;;;10.00;99.90;;;;;;5016825;28;20663;-69
2023/04/12 03:11:53;;;;;;;4.97;1.27;;;10.00;99.90;;;;;;5029266;28;20193;-68
2023/04/12 03:14:19;;;;;;;3.30;1.43;;;10.00;99.90;;;;;;5032175;28;20261;-68
2023/04/12 03:16:44;;;;;;;1.60;1.50;;;10.00;99.90;;;;;;5020465;28;20187;-68
2023/04/12 03:19:10;;;;;;;1.07;1.07;;;10.00;99.90;;;;;;5014978;28;20234;-68
2023/04/12 03:21:36;;;;;;;0.83;0.83;;;10.00;99.90;;;;;;5023631;28;20246;-67
2023/04/12 03:24:03;;;;;;;1.40;1.30;;;10.10;99.90;;;;;;5013865;28;20199;-68
2023/04/12 03:26:29;;;;;;;1.70;1.60;;;10.00;99.90;;;;;;5019960;28;20645;-68
2023/04/12 03:28:59;;;;;;;1.73;1.17;;;9.90;99.90;;;;;;5021620;28;20191;-68
2023/04/12 03:31:25;;;;;;;2.37;1.73;;;9.90;99.90;;;;;;5022226;28;20247;-68
2023/04/12 03:33:52;;;;;;;0.90;0.90;;;9.90;99.90;;;;;;5009523;28;20218;-67
2023/04/12 03:36:19;;;;;;;1.13;1.13;;;9.90;99.90;;;;;;5020710;28;20181;-67
2023/04/12 03:38:44;;;;;;;1.13;1.00;;;9.90;99.90;;;;;;5049509;28;20183;-67
2023/04/12 03:41:10;;;;;;;1.97;1.40;;;9.80;99.90;;;;;;5016495;28;20223;-67
2023/04/12 03:43:36;;;;;;;5.00;1.57;;;9.80;99.90;;;;;;5002255;28;20188;-66
2023/04/12 03:46:03;;;;;;;2.73;1.10;;;9.90;99.90;;;;;;5012294;28;20207;-67
2023/04/12 03:48:28;;;;;;;0.83;0.83;;;9.90;99.90;;;;;;5012177;28;20275;-67
2023/04/12 03:50:54;;;;;;;1.13;1.13;;;9.90;99.90;;;;;;5024547;28;20266;-68
2023/04/12 03:53:20;;;;;;;1.03;1.03;;;10.00;99.90;;;;;;5030217;28;20727;-68
2023/04/12 03:55:46;;;;;;;1.53;1.23;;;10.00;99.90;;;;;;5022728;28;20192;-68
2023/04/12 03:58:12;;;;;;;1.33;1.23;;;10.00;99.90;;;;;;5022394;28;20203;-67
2023/04/12 04:00:38;;;;;;;1.57;1.20;;;10.00;99.90;;;;;;4998309;28;20270;-67
2023/04/12 04:03:04;;;;;;;1.00;1.00;;;10.00;99.90;;;;;;4990454;28;20670;-68
2023/04/12 04:05:31;;;;;;;1.33;1.33;;;10.00;99.90;;;;;;5010925;28;20277;-67
2023/04/12 04:07:59;;;;;;;1.03;1.00;;;10.00;99.90;;;;;;5037470;28;20196;-67
2023/04/12 04:10:26;;;;;;;3.10;1.03;;;10.10;99.90;;;;;;5029200;28;20218;-67
2023/04/12 04:12:52;;;;;;;1.27;1.20;;;10.10;99.90;;;;;;5031442;28;20190;-68
2023/04/12 04:15:18;;;;;;;0.77;0.73;;;10.00;99.90;;;;;;5012386;28;20219;-67
2023/04/12 04:17:46;;;;;;;1.23;1.13;;;10.00;99.90;;;;;;5019409;28;20271;-68
2023/04/12 04:20:12;;;;;;;1.40;1.30;;;10.00;99.90;;;;;;5029798;28;20237;-68
2023/04/12 04:22:38;;;;;;;1.00;0.90;;;10.10;99.90;;;;;;5011216;28;21306;-68
2023/04/12 04:25:04;;;;;;;1.53;1.07;;;10.20;99.90;;;;;;5018037;28;20271;-67
2023/04/12 04:27:33;;;;;;;0.90;0.90;;;10.20;99.90;;;;;;5030418;28;20191;-68
2023/04/12 04:30:01;;;;;;;1.07;1.07;;;10.20;99.90;;;;;;5025110;28;20192;-67
2023/04/12 04:32:30;;;;;;;0.80;0.80;;;10.30;99.90;;;;;;5011427;28;20184;-67
2023/04/12 04:34:58;;;;;;;1.10;1.10;;;10.20;99.90;;;;;;5006511;28;20183;-67
2023/04/12 04:37:25;;;;;;;1.83;1.73;;;10.20;99.90;;;;;;5027140;28;20187;-67
2023/04/12 04:39:51;;;;;;;1.30;1.00;;;10.20;99.90;;;;;;5026983;28;20244;-67
2023/04/12 04:42:16;;;;;;;0.90;0.90;;;10.30;99.90;;;;;;5020511;28;20217;-68
2023/04/12 04:44:42;;;;;;;1.30;1.30;;;10.20;99.90;;;;;;5008342;28;20270;-67
2023/04/12 04:47:08;;;;;;;1.77;1.23;;;10.30;99.90;;;;;;5029805;28;20198;-68
2023/04/12 04:49:35;;;;;;;2.70;1.10;;;10.40;99.90;;;;;;5020931;28;20237;-68
2023/04/12 04:52:01;;;;;;;1.10;1.10;;;10.40;99.90;;;;;;5014811;28;20188;-68
2023/04/12 04:54:27;;;;;;;2.07;1.20;;;10.20;99.90;;;;;;5024372;28;20222;-68
2023/04/12 04:56:53;;;;;;;2.73;1.33;;;10.40;99.90;;;;;;5031728;28;20686;-68
2023/04/12 04:59:19;;;;;;;1.43;1.00;;;10.50;99.90;;;;;;5013901;28;20201;-68
2023/04/12 05:01:44;;;;;;;1.23;1.13;;;10.50;99.90;;;;;;5014791;28;20218;-68
2023/04/12 05:04:10;;;;;;;1.37;1.27;;;10.60;99.90;;;;;;5018789;28;20215;-68
2023/04/12 05:06:36;;;;;;;1.40;1.30;;;10.60;99.90;;;;;;5029790;28;20293;-67
2023/04/12 05:09:02;;;;;;;1.40;1.30;;;10.40;99.90;;;;;;5009073;28;20202;-68
2023/04/12 05:11:28;;;;;;;2.80;1.47;;;10.30;99.90;;;;;;5020670;28;20203;-67
2023/04/12 05:13:54;;;;;;;1.37;1.33;;;10.30;99.90;;;;;;5013342;28;20188;-67
2023/04/12 05:16:19;;;;;;;0.87;0.87;;;10.40;99.90;;;;;;5045364;28;20184;-66
2023/04/12 05:18:45;;;;;;;1.00;0.83;;;10.30;99.90;;;;;;5029900;28;20234;-67
2023/04/12 05:21:11;;;;;;;0.93;0.93;;;10.50;99.90;;;;;;5030429;28;20269;-67
2023/04/12 05:23:41;;;;;;;2.60;0.87;;;10.50;99.90;;;;;;5021313;28;20190;-67
2023/04/12 05:26:07;;;;;;;2.43;1.13;;;10.60;99.90;;;;;;5029724;28;20191;-68
2023/04/12 05:28:32;;;;;;;1.10;1.10;;;10.70;99.90;;;;;;5028796;28;20186;-67
2023/04/12 05:30:58;;;;;;;1.13;0.80;;;10.60;99.90;;;;;;5009810;28;20279;-67
2023/04/12 05:33:24;;;;;;;0.80;0.80;;;10.60;99.90;;;;;;4997513;28;20375;-67
2023/04/12 05:35:49;;;;;;;1.30;0.73;;;10.60;99.90;;;;;;5019936;28;20187;-67
2023/04/12 05:38:15;;;;;;;2.27;0.80;;;10.60;99.90;;;;;;5030363;28;20233;-67
2023/04/12 05:40:42;;;;;;;0.97;0.90;;;10.60;99.90;;;;;;5015573;28;20214;-67
2023/04/12 05:43:11;;;;;;;3.23;1.50;;;10.60;99.90;;;;;;5043389;28;20386;-66
2023/04/12 05:45:38;;;;;;;3.23;1.30;;;10.60;99.90;;;;;;5014339;28;20598;-66
2023/04/12 05:48:04;;;;;;;4.43;1.30;;;10.60;99.90;;;;;;5013878;28;20672;-67
2023/04/12 05:50:29;;;;;;;0.97;0.97;;;10.60;99.90;;;;;;5009166;28;20216;-66
2023/04/12 05:52:55;;;;;;;1.60;1.00;;;10.60;99.90;;;;;;5028524;28;20265;-67
2023/04/12 05:55:21;;;;;;;1.67;1.10;;;10.60;99.90;;;;;;5009458;28;20201;-67
2023/04/12 05:57:46;;;;;;;2.22;1.05;;;10.60;99.90;;;;;;5011379;28;20184;-67
2023/04/12 06:00:15;;;;;;;2.50;1.20;;;10.70;99.90;;;;;;5017732;28;20217;-67
2023/04/12 06:02:43;;;;;;;3.30;1.48;;;10.60;99.90;;;;;;5011995;28;20332;-67
2023/04/12 06:05:10;;;;;;;1.20;1.20;;;10.60;99.90;;;;;;5015383;28;20184;-67
2023/04/12 06:07:38;;;;;;;1.20;1.15;;;10.70;99.90;;;;;;5018700;28;20182;-67
2023/04/12 06:10:04;;;;;;;3.17;1.27;;;10.80;99.90;;;;;;5014075;28;20550;-67
2023/04/12 06:12:30;;;;;;;2.92;1.90;;;10.80;99.90;;;;;;5026483;28;20578;-67
2023/04/12 06:14:56;;;;;;;3.65;1.85;;;10.80;99.90;;;;;;5019006;28;20190;-66
2023/04/12 06:17:21;;;;;;;2.08;1.58;;;10.70;99.90;;;;;;5019110;28;21355;-67
2023/04/12 06:19:47;;;;;;;5.10;2.00;;;10.70;99.90;;;;;;5055144;28;20650;-67
2023/04/12 06:22:13;;;;;;;6.22;2.20;;;10.60;99.90;;;;;;4996606;28;20231;-66
2023/04/12 06:24:39;;;;;;;7.63;1.37;;;10.60;99.90;;;;;;5014381;28;20718;-66
2023/04/12 06:27:05;;;;;;;3.22;1.27;;;10.70;99.90;;;;;;5021650;28;20191;-66
2023/04/12 06:29:30;;;;;;;1.98;1.75;;;10.50;99.90;;;;;;5020989;28;20237;-65
2023/04/12 06:31:56;;;;;;;2.57;1.70;;;10.50;99.90;;;;;;5007323;28;20204;-66
2023/04/12 06:34:21;;;;;;;2.10;1.83;;;10.60;99.90;;;;;;5018325;28;20311;-66
2023/04/12 06:36:47;;;;;;;3.23;1.50;;;10.50;99.90;;;;;;5010492;28;20272;-68
2023/04/12 06:39:15;;;;;;;2.93;1.63;;;10.50;99.90;;;;;;5009719;28;20189;-68
2023/04/12 06:41:42;;;;;;;2.88;1.50;;;10.70;99.90;;;;;;5025552;28;20210;-68
2023/04/12 06:44:08;;;;;;;2.92;1.58;;;10.80;99.90;;;;;;5003815;28;20281;-71
2023/04/12 06:46:34;;;;;;;1.52;1.40;;;11.00;99.90;;;;;;5013061;28;20187;-71
2023/04/12 06:49:00;;;;;;;1.90;1.42;;;11.00;99.90;;;;;;5061331;28;20308;-66
2023/04/12 06:51:27;;;;;;;3.25;1.27;;;11.00;99.90;;;;;;5029335;28;20190;-68
2023/04/12 06:53:52;;;;;;;2.63;2.38;;;10.90;99.90;;;;;;5020789;28;20265;-66
2023/04/12 06:56:18;;;;;;;4.18;1.42;;;10.80;99.90;;;;;;5016813;28;20646;-64
2023/04/12 06:58:44;;;;;;;1.05;1.00;;;10.80;99.90;;;;;;5024155;28;20190;-68
2023/04/12 07:01:13;;;;;;;3.33;1.48;;;10.80;99.90;;;;;;5015764;28;20216;-67
2023/04/12 07:03:39;;;;;;;2.92;2.63;;;10.80;99.90;;;;;;5030007;28;20211;-66
2023/04/12 07:06:05;;;;;;;3.50;1.20;;;10.90;99.90;;;;;;5020587;28;20651;-65
2023/04/12 07:08:35;;;;;;;2.25;2.05;;;10.90;99.90;;;;;;5024419;28;20186;-65
2023/04/12 07:11:01;;;;;;;1.30;1.20;;;10.90;99.90;;;;;;5012144;28;20204;-66
2023/04/12 07:13:27;;;;;;;2.45;1.48;;;11.00;99.90;;;;;;5056699;28;20544;-67
2023/04/12 07:15:55;;;;;;;6.13;2.45;;;11.00;99.90;;;;;;5016939;28;20180;-66
2023/04/12 07:18:21;;;;;;;2.70;1.75;;;11.00;99.90;;;;;;5014709;28;20770;-66
2023/04/12 07:20:53;;;;;;;3.33;1.33;;;11.10;99.90;;;;;;5016863;28;20214;-64
2023/04/12 07:23:19;;;;;;;2.00;1.52;;;11.20;99.90;;;;;;5013342;28;20225;-64
2023/04/12 07:25:44;;;;;;;2.35;1.45;;;11.40;99.90;;;;;;5009484;28;20203;-65
2023/04/12 07:28:10;;;;;;;1.42;1.35;;;11.50;99.90;;;;;;5013001;28;20188;-65
2023/04/12 07:30:38;;;;;;;1.58;1.48;;;11.60;99.90;;;;;;5015632;28;20193;-65
2023/04/12 07:33:05;;;;;;;1.88;1.45;;;11.70;99.90;;;;;;5016522;28;20179;-65
2023/04/12 07:35:31;;;;;;;2.33;1.55;;;11.70;99.90;;;;;;5016960;28;20687;-64
2023/04/12 07:37:57;;;;;;;2.58;1.45;;;11.70;99.90;;;;;;5015170;28;20187;-64
2023/04/12 07:40:23;;;;;;;9.10;3.42;;;11.70;99.90;;;;;;5014417;28;20672;-64
2023/04/12 07:42:49;;;;;;;2.63;1.30;;;11.90;99.90;;;;;;5012069;28;20180;-64
2023/04/12 07:45:15;;;;;;;2.33;1.55;;;12.00;99.90;;;;;;5008288;28;20188;-64
2023/04/12 07:47:41;;;;;;;1.50;1.25;;;12.00;99.90;;;;;;5014438;28;20265;-65
2023/04/12 07:50:07;;;;;;;6.18;1.52;;;12.00;99.90;;;;;;5016690;28;20195;-66
2023/04/12 07:52:33;;;;;;;3.90;2.35;;;12.20;99.90;;;;;;5020098;28;20179;-64
2023/04/12 07:54:58;;;;;;;3.95;1.73;;;12.30;99.90;;;;;;5022071;28;20221;-64
2023/04/12 07:57:25;;;;;;;3.25;1.13;;;12.40;99.90;;;;;;5021911;28;20191;-65
2023/04/12 07:59:51;;;;;;;6.15;2.00;;;12.60;99.90;;;;;;5007420;28;20605;-64
2023/04/12 08:02:23;;;;;;;3.55;2.03;;;12.50;99.90;;;;;;5002217;28;20327;-65
2023/04/12 08:04:55;;;;;;;5.05;1.40;;;12.50;99.90;;;;;;5013145;28;20192;-64
2023/04/12 08:07:21;;;;;;;6.53;1.58;;;12.40;99.90;;;;;;5007031;28;20187;-65
2023/04/12 08:09:47;;;;;;;2.22;1.33;;;12.40;99.90;;;;;;5012302;28;20656;-65
2023/04/12 08:12:14;;;;;;;3.55;1.55;;;12.50;99.90;;;;;;5010834;28;20686;-65
2023/04/12 08:14:40;;;;;;;2.85;1.65;;;12.60;99.90;;;;;;5015528;28;20274;-65
2023/04/12 08:17:06;;;;;;;8.55;2.08;;;13.00;99.90;;;;;;5005468;28;20182;-66
2023/04/12 08:19:32;;;;;;;1.65;1.25;;;13.20;99.90;;;;;;5012880;28;20664;-65
2023/04/12 08:21:57;;;;;;;5.03;1.42;;;13.60;99.90;;;;;;5010688;28;20195;-65
2023/04/12 08:24:23;;;;;;;3.25;1.50;;;14.00;99.90;;;;;;5005787;28;20270;-65
2023/04/12 08:26:52;;;;;;;11.65;1.50;;;14.70;99.90;;;;;;5008780;28;20272;-64
2023/04/12 08:29:17;;;;;;;4.45;1.27;;;16.10;99.90;;;;;;5010173;28;20714;-64
2023/04/12 08:31:43;;;;;;;3.55;1.48;;;17.10;99.90;;;;;;5012620;28;20184;-64
2023/04/12 08:34:09;;;;;;;5.45;1.30;;;16.90;99.90;;;;;;5012896;28;20194;-66
2023/04/12 08:36:35;;;;;;;1.85;0.93;;;16.50;99.90;;;;;;5004778;28;20716;-64
2023/04/12 08:39:01;;;;;;;3.15;1.05;;;16.20;99.90;;;;;;5012356;28;20191;-67
2023/04/12 08:41:27;;;;;;;3.78;1.48;;;15.70;99.90;;;;;;5007900;28;20220;-66
2023/04/12 08:43:56;;;;;;;10.57;3.33;;;15.60;99.90;;;;;;5012384;28;20187;-66
2023/04/12 08:46:22;;;;;;;8.35;1.90;;;15.40;99.90;;;;;;5012514;28;20196;-66
2023/04/12 08:48:53;;;;;;;5.03;1.23;;;15.40;99.90;;;;;;5002382;28;20179;-66
2023/04/12 08:51:20;;;;;;;8.30;2.33;;;15.80;99.90;;;;;;5013096;28;20290;-66
2023/04/12 08:53:46;;;;;;;7.32;2.08;;;15.70;99.90;;;;;;5023663;28;20233;-65
2023/04/12 08:56:12;;;;;;;4.40;1.75;;;14.90;99.90;;;;;;5016260;28;20194;-66
2023/04/12 08:58:43;;;;;;;3.78;1.80;;;14.20;99.90;;;;;;5000843;28;20191;-66
2023/04/12 09:01:14;;;;;;;5.28;1.48;;;14.10;99.90;;;;;;5001694;28;20234;-66
2023/04/12 09:03:41;;;;;;;6.22;1.80;;;13.90;99.90;;;;;;5018082;28;20190;-66
2023/04/12 09:06:08;;;;;;;5.82;1.83;;;14.00;99.90;;;;;;5019048;28;20648;-66
2023/04/12 09:08:34;;;;;;;4.00;1.67;;;14.10;99.90;;;;;;5028743;28;20671;-66
2023/04/12 09:11:00;;;;;;;12.25;1.98;;;14.50;99.90;;;;;;5016387;28;20188;-66
2023/04/12 09:13:38;;;;;;;9.68;1.35;;;14.70;99.90;;;;;;5006208;28;20629;-66
2023/04/12 09:16:04;;;;;;;2.75;1.10;;;14.70;99.90;;;;;;4998577;28;20240;-66
2023/04/12 09:18:30;;;;;;;2.33;1.10;;;14.80;99.90;;;;;;5013812;28;20222;-66
2023/04/12 09:21:10;;;;;;;4.50;1.95;;;14.90;99.90;;;;;;5022986;28;20249;-66
2023/04/12 09:23:36;;;;;;;3.08;1.35;;;15.20;99.90;;;;;;5011474;28;20642;-66
2023/04/12 09:26:02;;;;;;;1.95;1.38;;;14.90;99.90;;;;;;5010051;28;20676;-65
2023/04/12 09:28:29;;;;;;;2.95;1.20;;;14.90;99.90;;;;;;5013356;28;20193;-69
2023/04/12 09:30:57;;;;;;;4.45;1.70;;;14.80;99.90;;;;;;5012310;28;20183;-65
2023/04/12 09:33:35;;;;;;;4.13;2.17;;;14.50;99.90;;;;;;5020180;28;20649;-68
2023/04/12 09:36:08;;;;;;;2.38;1.30;;;14.60;99.90;;;;;;5014342;28;20175;-66
2023/04/12 09:38:35;;;;;;;3.47;1.70;;;14.70;99.90;;;;;;5007367;28;20202;-66
2023/04/12 09:41:24;;;;;;;8.68;1.90;;;14.60;99.90;;;;;;5016482;28;20214;-65
2023/04/12 09:43:50;;;;;;;4.07;1.52;;;14.50;99.90;;;;;;5020248;28;20224;-65
2023/04/12 09:46:16;;;;;;;3.60;2.08;;;14.60;99.90;;;;;;5013727;28;20184;-65
2023/04/12 09:48:49;;;;;;;14.82;2.30;;;14.80;99.90;;;;;;5002937;28;20199;-66
2023/04/12 09:51:32;;;;;;;1.55;1.13;;;14.80;99.90;;;;;;5022745;28;20187;-66
2023/04/12 09:54:00;;;;;;;4.20;1.42;;;14.90;99.90;;;;;;5031075;28;20182;-65
2023/04/12 09:56:34;;;;;;;4.80;2.05;;;14.80;99.90;;;;;;5019817;28;20237;-65
2023/04/12 09:59:05;;;;;;;12.95;3.25;;;14.80;99.90;;;;;;5026884;28;20201;-66
2023/04/12 10:01:41;;;;;;;6.63;1.75;;;15.00;99.90;;;;;;5028116;28;20226;-65
2023/04/12 10:04:08;;;;;;;6.68;1.60;;;14.90;99.90;;;;;;5009923;28;20194;-65
2023/04/12 10:06:34;;;;;;;6.18;1.35;;;14.60;99.90;;;;;;5019585;28;20235;-66
2023/04/12 10:09:03;;;;;;;2.33;1.20;;;14.50;99.90;;;;;;5026076;28;20240;-66
2023/04/12 10:11:30;;;;;;;4.30;2.05;;;14.80;99.90;;;;;;5013720;28;20648;-66
2023/04/12 10:13:57;;;;;;;5.82;2.28;;;14.90;99.90;;;;;;5018414;28;20206;-66
2023/04/12 10:16:25;;;;;;;4.20;1.17;;;14.80;99.90;;;;;;5010874;28;20195;-66
2023/04/12 10:18:51;;;;;;;8.70;1.58;;;14.90;99.90;;;;;;5012838;28;20222;-66
2023/04/12 10:21:17;;;;;;;4.97;1.90;;;15.30;99.90;;;;;;5024716;28;20218;-66
2023/04/12 10:23:44;;;;;;;1.42;1.23;;;15.40;99.90;;;;;;5019954;28;20187;-66
2023/04/12 10:26:10;;;;;;;7.35;1.75;;;15.50;99.90;;;;;;5010554;28;20192;-66
2023/04/12 10:28:35;;;;;;;5.47;1.58;;;15.70;99.90;;;;;;5012410;28;20183;-66
2023/04/12 10:31:29;;;;;;;2.72;1.40;;;15.80;99.90;;;;;;5014435;28;20196;-66
2023/04/12 10:33:55;;;;;;;2.70;1.40;;;14.80;99.90;;;;;;5017900;28;20262;-67
2023/04/12 10:36:54;;;;;;;3.25;1.17;;;14.00;99.90;;;;;;5022977;28;20179;-66
2023/04/12 10:39:38;;;;;;;7.05;1.60;;;13.60;99.90;;;;;;4995114;28;20180;-67
2023/04/12 10:42:14;;;;;;;4.20;1.58;;;13.40;99.90;;;;;;5012556;28;20696;-65
2023/04/12 10:44:40;;;;;;;6.68;1.73;;;13.60;99.90;;;;;;5019572;28;20271;-65
2023/04/12 10:47:06;;;;;;;6.32;1.65;;;13.60;99.90;;;;;;5020205;28;20274;-65
2023/04/12 10:49:33;;;;;;;6.28;2.10;;;13.70;99.90;;;;;;5030099;28;20198;-65
2023/04/12 10:52:08;;;;;;;6.28;1.67;;;14.10;99.90;;;;;;5021179;28;20187;-67
2023/04/12 10:54:34;;;;;;;4.07;1.42;;;14.20;99.90;;;;;;5016407;28;20178;-65
2023/04/12 10:57:01;;;;;;;5.13;1.63;;;14.40;99.90;;;;;;5023544;28;20679;-66
2023/04/12 10:59:56;;;;;;;3.25;1.48;;;14.60;99.90;;;;;;5024862;28;20259;-65
2023/04/12 11:02:21;;;;;;;7.03;1.83;;;14.70;99.90;;;;;;5019746;28;20195;-65
2023/04/12 11:05:08;;;;;;;5.38;2.53;;;14.70;99.90;;;;;;5018459;28;20190;-65
2023/04/12 11:07:41;;;;;;;4.00;2.15;;;14.60;99.90;;;;;;5026128;28;20601;-66
2023/04/12 11:10:15;;;;;;;6.53;1.73;;;14.80;99.90;;;;;;5015947;28;20186;-65
2023/04/12 11:12:46;;;;;;;3.63;3.03;;;14.90;99.90;;;;;;5018562;28;20234;-65
2023/04/12 11:15:12;;;;;;;6.95;1.70;;;15.20;99.90;;;;;;5024072;28;20191;-65
2023/04/12 11:17:38;;;;;;;6.97;2.53;;;15.60;99.90;;;;;;5021661;28;20717;-64
2023/04/12 11:20:09;;;;;;;2.85;1.30;;;16.00;99.90;;;;;;5028496;28;20234;-67
2023/04/12 11:22:35;;;;;;;5.88;2.00;;;15.60;99.90;;;;;;5013404;28;20228;-64
2023/04/12 11:25:02;;;;;;;1.50;1.40;;;15.60;99.90;;;;;;5022513;28;20246;-64
2023/04/12 11:27:28;;;;;;;5.65;1.77;;;15.50;99.90;;;;;;5020862;28;20266;-64
2023/04/12 11:29:56;;;;;;;9.23;2.30;;;15.90;99.90;;;;;;5025594;28;20274;-64
2023/04/12 11:32:25;;;;;;;4.68;1.75;;;15.80;99.90;;;;;;5012633;28;20216;-64
2023/04/12 11:34:52;;;;;;;4.70;2.00;;;15.90;99.90;;;;;;5015123;28;20544;-66
2023/04/12 11:37:19;;;;;;;5.65;1.75;;;15.90;99.90;;;;;;5050347;28;20217;-65
2023/04/12 11:39:46;;;;;;;5.80;1.20;;;15.80;99.90;;;;;;5024767;28;20305;-66
2023/04/12 11:42:20;;;;;;;1.63;1.30;;;15.70;99.90;;;;;;5010052;28;20203;-64
2023/04/12 11:44:47;;;;;;;4.30;1.27;;;15.10;99.90;;;;;;5019389;28;20693;-64
2023/04/12 11:47:19;;;;;;;4.00;1.58;;;14.20;99.90;;;;;;5016980;28;20198;-64
2023/04/12 11:49:56;;;;;;;5.00;1.30;;;13.50;99.90;;;;;;5015849;28;20320;-66
2023/04/12 11:52:31;;;;;;;1.10;0.65;;;12.30;99.90;;;;;;5009012;28;20186;-66
2023/04/12 11:55:03;;;;;;;2.70;1.42;;;11.80;99.90;;;;;;5013737;28;20233;-65
2023/04/12 11:57:29;;;;;;;3.88;1.85;;;11.70;99.90;;;;;;5022991;28;20177;-65
2023/04/12 11:59:58;;;;;;;3.53;1.88;;;11.60;99.90;;;;;;5027029;28;20546;-65
2023/04/12 12:02:25;;;;;;;3.83;1.25;;;11.80;99.90;;;;;;5032504;28;20266;-68
2023/04/12 12:04:51;;;;;;;2.55;0.98;;;11.80;99.90;;;;;;5033068;28;20226;-66
2023/04/12 12:07:18;;;;;;;1.00;1.00;;;11.80;99.90;;;;;;5019803;28;20198;-66
2023/04/12 12:09:47;;;;;;;1.52;1.10;;;11.60;99.90;;;;;;5014763;28;20552;-68
2023/04/12 12:12:13;;;;;;;2.55;1.42;;;11.50;99.90;;;;;;5019823;28;20194;-68
2023/04/12 12:14:39;;;;;;;2.50;1.15;;;11.60;99.90;;;;;;5012390;28;20191;-64
2023/04/12 12:17:14;;;;;;;3.53;1.00;;;11.70;99.90;;;;;;5026842;28;20234;-66
2023/04/12 12:19:44;;;;;;;4.82;1.45;;;11.90;99.90;;;;;;5024058;28;20806;-69
2023/04/12 12:22:10;;;;;;;3.35;0.85;;;12.10;99.90;;;;;;5009336;28;20195;-68
2023/04/12 12:24:36;;;;;;;4.00;1.20;;;12.30;99.90;;;;;;5024871;28;20542;-67
2023/04/12 12:27:02;;;;;;;4.53;1.17;;;12.50;99.90;;;;;;5019566;28;20186;-66
2023/04/12 12:29:37;;;;;;;3.08;1.25;;;12.80;99.90;;;;;;5025924;28;20217;-67
2023/04/12 12:32:11;;;;;;;2.30;1.10;;;13.00;99.90;;;;;;5030021;28;20186;-67
2023/04/12 12:34:37;;;;;;;1.08;1.05;;;13.10;99.90;;;;;;5007251;28;20176;-68
2023/04/12 12:37:07;;;;;;;1.48;0.93;;;13.50;99.90;;;;;;5022569;28;20274;-70
2023/04/12 12:39:33;;;;;;;2.13;1.20;;;13.60;99.90;;;;;;5005533;28;20186;-66
2023/04/12 12:41:59;;;;;;;3.17;1.00;;;13.80;99.90;;;;;;5026946;28;20277;-68
2023/04/12 12:44:24;;;;;;;3.95;1.20;;;14.10;99.90;;;;;;5005450;28;20201;-68
2023/04/12 12:46:50;;;;;;;1.27;1.05;;;14.40;99.90;;;;;;5005659;28;20255;-67
2023/04/12 12:49:17;;;;;;;1.02;1.02;;;14.40;99.90;;;;;;5029299;28;20198;-66
2023/04/12 12:51:42;;;;;;;1.58;1.17;;;14.50;99.90;;;;;;5003488;28;20697;-66